Time;durP1;ratioP1;P1;durP2;ratioP2;P2;SDS_P1;SDS_P2;PMS_P1;PMS_P2;Temp;Humidity;BMP_temperature;BMP_pressure;BME280_temperature;BME280_humidity;BME280_pressure;Samples;Min_cycle;Max_cycle;Signal;HPM_P1;HPM_P2
2022/04/08 00:00:00;;;;;;;4.00;1.52;;;;;;;11.60;59.93;97201.69;5070616;28;20180;-73
2022/04/08 00:02:27;;;;;;;3.55;2.00;;;;;;;11.61;59.61;97208.59;5071599;28;20501;-73
2022/04/08 00:04:54;;;;;;;3.80;2.05;;;;;;;11.65;59.69;97207.22;5073096;28;20064;-70
2022/04/08 00:07:21;;;;;;;3.33;1.60;;;;;;;11.69;59.40;97205.00;5072961;28;20087;-70
2022/04/08 00:09:49;;;;;;;4.75;1.88;;;;;;;11.71;59.42;97200.34;5068201;28;20250;-71
2022/04/08 00:12:16;;;;;;;4.35;2.33;;;;;;;11.72;59.44;97192.22;5069613;28;20049;-70
2022/04/08 00:14:43;;;;;;;5.13;1.98;;;;;;;11.72;59.57;97196.66;5069230;28;20540;-74
2022/04/08 00:17:10;;;;;;;5.30;1.95;;;;;;;11.72;59.65;97186.09;5071909;28;20044;-71
2022/04/08 00:19:38;;;;;;;5.53;2.47;;;;;;;11.71;59.58;97164.13;5073170;28;20143;-72
2022/04/08 00:22:05;;;;;;;5.43;2.90;;;;;;;11.73;59.57;97169.22;5064350;28;20634;-73
2022/04/08 00:24:32;;;;;;;6.03;2.70;;;;;;;11.72;59.38;97160.50;5069335;28;20048;-72
2022/04/08 00:27:01;;;;;;;3.05;2.10;;;;;;;11.71;59.35;97153.56;5064377;28;20131;-72
2022/04/08 00:29:28;;;;;;;2.72;2.20;;;;;;;11.69;59.18;97158.22;5062695;28;20047;-72
2022/04/08 00:31:57;;;;;;;3.55;2.03;;;;;;;11.67;58.88;97161.06;5066368;28;20125;-72
2022/04/08 00:34:25;;;;;;;2.67;1.50;;;;;;;11.66;58.49;97154.13;5068776;28;20087;-71
2022/04/08 00:36:53;;;;;;;1.88;1.38;;;;;;;11.67;57.94;97160.25;5078201;28;20415;-72
2022/04/08 00:39:20;;;;;;;3.67;1.52;;;;;;;11.65;57.53;97171.03;5075726;28;20108;-78
2022/04/08 00:41:47;;;;;;;3.20;1.55;;;;;;;11.62;57.06;97174.03;5079740;28;20083;-74
2022/04/08 00:44:15;;;;;;;4.53;1.30;;;;;;;11.60;56.32;97189.28;5077377;28;20136;-79
2022/04/08 00:46:44;;;;;;;9.07;2.67;;;;;;;11.57;55.99;97194.13;5077968;28;20135;-74
2022/04/08 00:49:12;;;;;;;3.88;1.30;;;;;;;11.51;55.86;97198.38;5075954;28;20051;-73
2022/04/08 00:51:40;;;;;;;3.15;1.88;;;;;;;11.48;55.24;97201.38;5070717;28;20165;-71
2022/04/08 00:54:07;;;;;;;5.82;1.55;;;;;;;11.48;55.20;97204.84;5073450;28;20067;-72
2022/04/08 00:56:36;;;;;;;2.65;1.13;;;;;;;11.49;55.34;97213.59;5073294;28;20076;-71
2022/04/08 00:59:03;;;;;;;3.40;1.77;;;;;;;11.51;54.87;97222.16;5070413;28;20504;-72
2022/04/08 01:01:32;;;;;;;3.95;1.08;;;;;;;11.46;53.09;97214.78;5073980;28;20539;-72
2022/04/08 01:03:59;;;;;;;5.15;1.52;;;;;;;11.47;53.07;97226.19;5077249;28;20131;-71
2022/04/08 01:06:26;;;;;;;4.00;1.60;;;;;;;11.42;51.59;97225.94;5073494;28;20127;-72
2022/04/08 01:08:55;;;;;;;1.85;1.38;;;;;;;11.45;52.20;97228.19;5068388;28;20102;-70
2022/04/08 01:11:23;;;;;;;3.20;1.48;;;;;;;11.44;52.10;97230.03;5069815;28;20128;-69
2022/04/08 01:13:51;;;;;;;4.60;0.88;;;;;;;11.43;51.77;97240.78;5074688;28;20053;-71
2022/04/08 01:16:19;;;;;;;2.38;1.65;;;;;;;11.40;52.06;97251.75;5071661;28;20131;-73
2022/04/08 01:18:48;;;;;;;3.08;1.10;;;;;;;11.37;51.99;97262.69;5071781;28;20509;-71
2022/04/08 01:21:15;;;;;;;3.33;1.23;;;;;;;11.36;51.65;97253.97;5074436;28;20048;-72
2022/04/08 01:23:48;;;;;;;2.45;1.33;;;;;;;11.36;51.22;97258.41;5073032;28;20129;-73
2022/04/08 01:26:16;;;;;;;3.35;1.55;;;;;;;11.42;51.13;97265.59;5068866;28;20070;-71
2022/04/08 01:28:45;;;;;;;2.90;1.70;;;;;;;11.44;51.45;97272.31;5067903;28;20049;-74
2022/04/08 01:31:12;;;;;;;3.92;1.30;;;;;;;11.45;51.27;97271.31;5067376;28;20106;-72
2022/04/08 01:33:39;;;;;;;4.40;1.60;;;;;;;11.43;51.29;97268.03;5072626;28;20076;-71
2022/04/08 01:36:06;;;;;;;4.30;1.50;;;;;;;11.45;51.05;97255.47;5070591;28;20044;-72
2022/04/08 01:38:33;;;;;;;4.70;1.55;;;;;;;11.46;51.08;97243.06;5067889;28;20045;-72
2022/04/08 01:41:00;;;;;;;3.05;1.70;;;;;;;11.49;51.23;97258.53;5066145;28;20191;-71
2022/04/08 01:43:28;;;;;;;2.63;1.35;;;;;;;11.50;51.45;97246.94;5072138;28;20044;-69
2022/04/08 01:45:55;;;;;;;4.03;1.23;;;;;;;11.45;50.82;97244.88;5073053;28;20063;-70
2022/04/08 01:48:22;;;;;;;5.57;1.98;;;;;;;11.47;51.16;97255.28;5073008;28;20468;-72
2022/04/08 01:50:49;;;;;;;1.80;0.80;;;;;;;11.45;51.13;97247.53;5066460;28;20509;-71
2022/04/08 01:53:17;;;;;;;4.93;1.38;;;;;;;11.40;50.56;97264.97;5072886;28;20106;-73
2022/04/08 01:55:44;;;;;;;2.75;1.27;;;;;;;11.38;51.05;97259.03;5072035;28;20048;-72
2022/04/08 01:58:11;;;;;;;4.25;1.70;;;;;;;11.35;51.43;97272.63;5069382;28;20681;-73
2022/04/08 02:00:40;;;;;;;3.90;1.60;;;;;;;11.22;51.27;97274.16;5071862;28;20048;-73
2022/04/08 02:03:07;;;;;;;2.30;1.10;;;;;;;11.13;51.40;97283.19;5074161;28;20037;-74
2022/04/08 02:05:34;;;;;;;4.53;0.90;;;;;;;11.04;51.74;97273.78;5080643;28;20072;-72
2022/04/08 02:08:01;;;;;;;5.38;1.52;;;;;;;10.93;51.84;97277.72;5080741;28;20727;-73
2022/04/08 02:10:27;;;;;;;1.95;1.13;;;;;;;10.90;52.04;97273.59;5077417;28;20112;-73
2022/04/08 02:12:54;;;;;;;6.30;1.60;;;;;;;10.88;51.89;97291.47;5077326;28;20386;-69
2022/04/08 02:15:27;;;;;;;4.78;0.85;;;;;;;10.90;51.78;97292.09;5075330;28;20105;-70
2022/04/08 02:17:56;;;;;;;2.33;1.15;;;;;;;10.91;51.14;97292.91;5078026;28;20164;-70
2022/04/08 02:20:23;;;;;;;3.80;1.40;;;;;;;10.94;51.35;97294.38;5075945;28;20109;-70
2022/04/08 02:22:50;;;;;;;2.47;1.27;;;;;;;10.93;51.52;97292.72;5077881;28;20045;-71
2022/04/08 02:25:17;;;;;;;3.72;1.20;;;;;;;10.93;51.16;97300.63;5072020;28;20184;-72
2022/04/08 02:27:44;;;;;;;9.00;1.67;;;;;;;11.00;51.21;97305.00;5071692;28;20037;-72
2022/04/08 02:30:13;;;;;;;4.47;1.83;;;;;;;11.00;51.42;97299.72;5079728;28;20072;-71
2022/04/08 02:32:40;;;;;;;3.78;1.63;;;;;;;10.96;51.55;97305.56;5077955;28;20115;-71
2022/04/08 02:35:09;;;;;;;3.45;1.55;;;;;;;10.89;51.40;97310.75;5069533;28;20048;-73
2022/04/08 02:37:37;;;;;;;1.40;0.95;;;;;;;10.92;51.58;97310.41;5070411;28;20087;-71
2022/04/08 02:40:05;;;;;;;3.20;1.20;;;;;;;10.94;51.54;97302.28;5073964;28;20044;-71
2022/04/08 02:42:32;;;;;;;2.60;1.00;;;;;;;10.93;51.22;97304.13;5077723;28;20108;-73
2022/04/08 02:44:59;;;;;;;3.45;1.42;;;;;;;10.88;51.59;97299.38;5076461;28;20055;-73
2022/04/08 02:47:26;;;;;;;5.80;1.30;;;;;;;10.85;51.35;97305.03;5079622;28;20075;-72
2022/04/08 02:49:53;;;;;;;2.55;0.88;;;;;;;10.80;51.31;97315.31;5079033;28;20132;-71
2022/04/08 02:52:21;;;;;;;7.45;1.50;;;;;;;10.77;51.56;97314.88;5075663;28;20128;-71
2022/04/08 02:54:48;;;;;;;5.97;2.38;;;;;;;10.77;51.49;97328.06;5060009;28;20080;-70
2022/04/08 02:57:15;;;;;;;4.28;1.27;;;;;;;10.78;51.63;97319.97;5077760;28;20120;-69
2022/04/08 02:59:42;;;;;;;3.63;1.73;;;;;;;10.74;51.79;97316.06;5073788;28;20577;-71
2022/04/08 03:02:09;;;;;;;6.60;2.63;;;;;;;10.67;51.92;97328.38;5075133;28;20040;-70
2022/04/08 03:04:36;;;;;;;4.20;1.90;;;;;;;10.62;51.71;97333.38;5077291;28;20128;-71
2022/04/08 03:07:03;;;;;;;5.30;1.88;;;;;;;10.61;51.83;97322.00;5077731;28;20488;-68
2022/04/08 03:09:32;;;;;;;11.48;4.85;;;;;;;10.68;52.17;97332.66;5078129;28;20028;-69
2022/04/08 03:11:59;;;;;;;22.17;8.77;;;;;;;10.74;51.84;97333.75;5077483;28;20051;-69
2022/04/08 03:14:26;;;;;;;16.10;5.28;;;;;;;10.76;51.54;97347.56;5074160;28;20424;-69
2022/04/08 03:16:53;;;;;;;10.35;3.67;;;;;;;10.76;51.54;97329.09;5077193;28;20123;-69
2022/04/08 03:19:20;;;;;;;5.88;2.33;;;;;;;10.75;51.89;97338.84;5077517;28;20139;-70
2022/04/08 03:21:47;;;;;;;2.72;1.83;;;;;;;10.67;52.08;97337.09;5065674;28;20048;-71
2022/04/08 03:24:14;;;;;;;3.33;1.15;;;;;;;10.61;52.00;97344.94;5064872;28;20044;-72
2022/04/08 03:26:43;;;;;;;3.65;1.35;;;;;;;10.56;52.06;97342.03;5066519;28;20051;-70
2022/04/08 03:29:10;;;;;;;1.67;1.58;;;;;;;10.56;52.25;97350.75;5049326;28;20055;-71
2022/04/08 03:31:37;;;;;;;3.80;1.67;;;;;;;10.61;52.24;97347.59;5066865;28;20044;-69
2022/04/08 03:34:04;;;;;;;6.38;2.22;;;;;;;10.66;52.07;97350.47;5066268;28;20508;-71
2022/04/08 03:36:31;;;;;;;4.20;1.80;;;;;;;10.68;52.07;97341.38;5069138;28;20053;-68
2022/04/08 03:38:58;;;;;;;5.57;2.20;;;;;;;10.71;52.15;97348.94;5074860;28;20048;-70
2022/04/08 03:41:25;;;;;;;1.52;1.27;;;;;;;10.69;52.03;97344.84;5058256;28;20080;-70
2022/04/08 03:43:54;;;;;;;5.50;2.05;;;;;;;10.71;52.18;97358.66;5055688;28;20163;-69
2022/04/08 03:46:20;;;;;;;7.00;1.80;;;;;;;10.70;52.04;97354.41;5055108;28;20060;-68
2022/04/08 03:48:48;;;;;;;5.13;1.65;;;;;;;10.71;52.18;97354.22;5058073;28;20127;-68
2022/04/08 03:51:15;;;;;;;4.57;1.92;;;;;;;10.74;51.86;97362.78;5041330;28;20048;-69
2022/04/08 03:53:42;;;;;;;3.20;1.92;;;;;;;10.74;51.86;97350.38;5077112;28;20082;-69
2022/04/08 03:56:09;;;;;;;8.73;2.53;;;;;;;10.74;51.92;97368.88;5076812;28;20117;-72
2022/04/08 03:58:35;;;;;;;5.53;1.98;;;;;;;10.74;52.00;97368.06;5082864;28;20135;-70
2022/04/08 04:01:04;;;;;;;5.45;2.88;;;;;;;10.70;51.91;97372.88;5074814;28;20051;-71
2022/04/08 04:03:31;;;;;;;4.18;1.60;;;;;;;10.74;52.14;97376.78;5071773;28;20116;-70
2022/04/08 04:05:58;;;;;;;1.58;1.35;;;;;;;10.74;52.18;97381.25;5069970;28;20266;-70
2022/04/08 04:08:26;;;;;;;4.60;1.75;;;;;;;10.74;51.86;97379.44;5075119;28;20127;-69
2022/04/08 04:10:53;;;;;;;3.97;1.70;;;;;;;10.78;51.30;97385.97;5071655;28;20564;-71
2022/04/08 04:13:20;;;;;;;4.75;2.15;;;;;;;10.80;51.09;97377.88;5075544;28;20136;-70
2022/04/08 04:15:47;;;;;;;7.70;2.40;;;;;;;10.84;51.09;97387.91;5073825;28;20124;-69
2022/04/08 04:18:17;;;;;;;4.45;1.63;;;;;;;10.84;49.57;97393.19;5075334;28;20045;-72
2022/04/08 04:20:47;;;;;;;4.07;1.42;;;;;;;10.89;50.12;97388.16;5058842;28;20075;-71
2022/04/08 04:23:14;;;;;;;3.88;2.05;;;;;;;10.92;49.95;97391.44;5075207;28;20045;-73
2022/04/08 04:25:41;;;;;;;3.38;1.25;;;;;;;10.98;49.77;97399.44;5072583;28;20127;-69
2022/04/08 04:28:08;;;;;;;7.38;3.35;;;;;;;11.02;49.77;97397.25;5072289;28;20059;-70
2022/04/08 04:30:35;;;;;;;4.57;1.95;;;;;;;11.00;49.57;97409.81;5074431;28;20072;-72
2022/04/08 04:33:02;;;;;;;10.32;2.55;;;;;;;11.03;49.65;97398.88;5073794;28;20146;-77
2022/04/08 04:35:31;;;;;;;8.07;2.83;;;;;;;11.03;49.85;97414.72;5074851;28;20166;-78
2022/04/08 04:37:58;;;;;;;3.83;2.15;;;;;;;11.00;49.29;97393.97;5072378;28;20135;-70
2022/04/08 04:40:25;;;;;;;4.95;1.77;;;;;;;10.97;49.15;97408.38;5065501;28;20033;-76
2022/04/08 04:42:52;;;;;;;4.25;1.60;;;;;;;10.99;48.87;97418.75;5069310;28;20496;-70
2022/04/08 04:45:19;;;;;;;5.15;2.70;;;;;;;11.01;48.95;97422.03;5070802;28;20090;-69
2022/04/08 04:47:46;;;;;;;1.77;1.27;;;;;;;11.04;48.41;97421.66;5068219;28;20078;-70
2022/04/08 04:50:15;;;;;;;3.17;1.40;;;;;;;11.07;48.42;97421.28;5067880;28;20059;-70
2022/04/08 04:52:43;;;;;;;3.17;1.90;;;;;;;11.10;48.10;97427.00;5069809;28;20123;-68
2022/04/08 04:55:10;;;;;;;5.45;3.40;;;;;;;11.09;48.14;97419.28;5067848;28;20090;-69
2022/04/08 04:57:39;;;;;;;3.10;1.63;;;;;;;11.07;47.99;97426.56;5067232;28;20379;-69
2022/04/08 05:00:09;;;;;;;3.33;1.00;;;;;;;10.99;47.90;97424.84;5067731;28;20123;-66
2022/04/08 05:02:36;;;;;;;3.00;1.35;;;;;;;11.03;48.12;97420.81;5064391;28;20048;-69
2022/04/08 05:05:04;;;;;;;2.75;1.83;;;;;;;11.10;47.62;97423.56;5066710;28;20094;-71
2022/04/08 05:07:31;;;;;;;6.72;1.95;;;;;;;11.15;47.52;97434.41;5065600;28;20053;-71
2022/04/08 05:09:59;;;;;;;3.75;1.95;;;;;;;11.19;47.32;97438.31;5046727;28;20088;-68
2022/04/08 05:12:26;;;;;;;8.35;2.13;;;;;;;11.25;47.22;97445.50;5064258;28;20040;-68
2022/04/08 05:14:53;;;;;;;7.35;2.35;;;;;;;11.25;47.09;97457.88;5066384;28;20052;-73
2022/04/08 05:17:20;;;;;;;4.18;1.63;;;;;;;11.32;47.21;97444.75;5064043;28;20123;-69
2022/04/08 05:19:47;;;;;;;6.25;1.48;;;;;;;11.39;47.33;97457.03;5065571;28;20044;-67
2022/04/08 05:22:14;;;;;;;1.05;0.73;;;;;;;11.46;47.44;97436.78;5062872;28;20131;-69
2022/04/08 05:24:41;;;;;;;4.05;1.85;;;;;;;11.46;47.14;97446.56;5064061;28;20534;-70
2022/04/08 05:27:09;;;;;;;4.00;1.67;;;;;;;11.41;47.62;97449.75;5064401;28;20041;-70
2022/04/08 05:29:37;;;;;;;5.78;1.83;;;;;;;11.38;46.96;97459.88;5062591;28;20124;-71
2022/04/08 05:32:06;;;;;;;6.00;1.42;;;;;;;11.36;47.14;97468.00;5011922;28;20551;-69
2022/04/08 05:34:32;;;;;;;5.13;2.30;;;;;;;11.29;46.67;97467.91;5048148;28;20040;-70
2022/04/08 05:36:59;;;;;;;2.15;1.38;;;;;;;11.24;47.14;97477.41;5066796;28;20079;-71
2022/04/08 05:39:26;;;;;;;3.58;1.40;;;;;;;11.23;46.53;97483.66;5066942;28;20067;-76
2022/04/08 05:44:48;;;;;;;4.40;3.40;;;;;;;11.35;46.51;97486.69;5036468;28;20207;-75
2022/04/08 05:47:22;;;;;;;5.10;2.85;;;;;;;11.25;46.24;97476.38;5024134;28;20081;-74
2022/04/08 05:49:51;;;;;;;7.53;2.95;;;;;;;11.29;45.69;97483.75;5021959;28;20069;-72
2022/04/08 05:52:18;;;;;;;9.93;2.75;;;;;;;11.41;46.00;97481.47;5026367;28;20050;-72
2022/04/08 05:54:45;;;;;;;6.22;2.38;;;;;;;11.33;45.79;97496.63;5022975;28;20168;-74
2022/04/08 05:57:12;;;;;;;6.38;1.83;;;;;;;11.21;45.75;97494.41;5024874;28;20120;-73
2022/04/08 05:59:42;;;;;;;10.85;1.45;;;;;;;11.22;45.69;97489.97;5024538;28;20132;-72
2022/04/08 06:02:09;;;;;;;2.15;1.10;;;;;;;11.20;45.23;97492.78;5022755;28;20421;-75
2022/04/08 06:04:36;;;;;;;2.75;1.15;;;;;;;11.21;45.33;97496.25;5023350;28;20136;-75
2022/04/08 06:07:04;;;;;;;5.80;1.83;;;;;;;11.25;45.37;97508.91;5022212;28;20156;-73
2022/04/08 06:09:30;;;;;;;4.20;2.15;;;;;;;11.35;45.71;97511.28;5022129;28;20790;-75
2022/04/08 06:11:59;;;;;;;3.25;1.00;;;;;;;11.33;44.49;97509.81;5022498;28;20046;-73
2022/04/08 06:14:27;;;;;;;3.80;1.45;;;;;;;11.42;44.64;97501.59;5026870;28;20081;-73
2022/04/08 06:16:58;;;;;;;6.78;2.97;;;;;;;11.52;44.67;97540.94;5067545;28;20056;-75
2022/04/08 06:19:25;;;;;;;6.97;2.45;;;;;;;11.70;44.82;97542.41;5068905;28;20639;-74
2022/04/08 06:21:52;;;;;;;3.40;1.70;;;;;;;11.87;44.61;97543.84;5068759;28;20131;-73
2022/04/08 06:24:19;;;;;;;4.50;1.33;;;;;;;11.86;43.90;97561.50;5067851;28;20045;-73
2022/04/08 06:26:46;;;;;;;4.45;1.13;;;;;;;11.93;43.52;97558.97;5064848;28;20054;-72
2022/04/08 06:29:13;;;;;;;4.18;1.58;;;;;;;12.02;42.99;97559.69;5063181;28;20091;-75
2022/04/08 06:31:40;;;;;;;7.07;2.38;;;;;;;12.13;42.30;97568.97;5064777;28;20080;-71
2022/04/08 06:34:08;;;;;;;1.58;0.80;;;;;;;12.24;42.73;97569.31;5063580;28;20185;-74
2022/04/08 06:36:35;;;;;;;3.03;1.33;;;;;;;12.30;42.67;97578.31;5064710;28;20457;-72
2022/04/08 06:39:02;;;;;;;5.53;2.13;;;;;;;12.34;42.50;97590.16;5064940;28;20673;-73
2022/04/08 06:41:29;;;;;;;3.28;1.77;;;;;;;12.27;42.78;97570.75;5062960;28;20075;-76
2022/04/08 06:43:56;;;;;;;1.65;1.25;;;;;;;12.28;43.02;97561.81;5064140;28;20122;-71
2022/04/08 06:46:23;;;;;;;2.85;1.38;;;;;;;12.09;42.78;97592.34;5063636;28;20046;-73
2022/04/08 06:48:50;;;;;;;3.63;1.42;;;;;;;12.07;42.92;97602.28;5063550;28;20063;-73
2022/04/08 06:51:19;;;;;;;3.22;2.35;;;;;;;12.26;42.91;97602.69;5063745;28;20052;-75
2022/04/08 06:53:46;;;;;;;3.28;1.08;;;;;;;12.11;43.18;97621.25;5061907;28;20100;-73
2022/04/08 06:56:13;;;;;;;2.83;1.50;;;;;;;12.04;43.67;97621.97;5063657;28;20682;-74
2022/04/08 06:58:40;;;;;;;2.95;1.23;;;;;;;11.98;43.91;97620.09;5064617;28;20108;-74
2022/04/08 07:01:08;;;;;;;3.05;0.90;;;;;;;11.89;43.79;97626.47;5063949;28;20056;-76
2022/04/08 07:03:35;;;;;;;3.47;1.52;;;;;;;11.99;44.03;97634.13;5063818;28;20040;-75
2022/04/08 07:06:03;;;;;;;4.78;1.90;;;;;;;11.89;43.56;97623.81;5063032;28;20044;-73
2022/04/08 07:08:31;;;;;;;2.35;1.25;;;;;;;11.83;43.89;97628.00;5062932;28;20063;-75
2022/04/08 07:10:58;;;;;;;7.75;2.00;;;;;;;12.04;43.81;97647.63;5060177;28;20044;-74
2022/04/08 07:13:25;;;;;;;3.80;1.35;;;;;;;12.32;43.67;97639.00;5062962;28;20060;-75
2022/04/08 07:15:52;;;;;;;3.63;1.50;;;;;;;12.23;43.21;97643.59;5064127;28;20080;-76
2022/04/08 07:18:21;;;;;;;3.25;1.23;;;;;;;12.25;43.57;97652.16;5061937;28;20048;-74
2022/04/08 07:20:48;;;;;;;4.15;1.52;;;;;;;12.33;43.46;97661.81;5064435;28;20076;-75
2022/04/08 07:23:16;;;;;;;3.00;1.77;;;;;;;12.61;43.18;97654.78;5064879;28;20438;-76
2022/04/08 07:25:44;;;;;;;3.22;1.63;;;;;;;12.82;42.30;97672.53;5062772;28;20076;-74
2022/04/08 07:28:12;;;;;;;5.18;1.27;;;;;;;12.94;42.07;97672.00;5064917;28;20108;-72
2022/04/08 07:30:39;;;;;;;1.60;0.88;;;;;;;12.94;41.96;97678.13;5064179;28;20048;-75
2022/04/08 07:33:06;;;;;;;2.78;1.88;;;;;;;13.20;41.82;97672.25;5045560;28;20048;-73
2022/04/08 07:35:34;;;;;;;6.28;1.38;;;;;;;13.20;41.65;97676.75;5064211;28;20217;-76
2022/04/08 07:38:03;;;;;;;3.65;1.55;;;;;;;13.22;41.56;97680.00;5063088;28;20056;-75
2022/04/08 07:40:30;;;;;;;4.45;1.20;;;;;;;13.05;41.52;97694.53;5060282;28;20512;-76
2022/04/08 07:42:59;;;;;;;3.92;1.55;;;;;;;12.93;41.85;97703.00;5063391;28;20619;-75
2022/04/08 07:45:29;;;;;;;3.33;1.70;;;;;;;13.07;41.94;97717.19;5063677;28;20076;-75
2022/04/08 07:47:58;;;;;;;4.32;1.73;;;;;;;13.16;41.47;97712.56;5062822;28;20052;-73
2022/04/08 07:50:27;;;;;;;3.75;1.98;;;;;;;13.05;41.00;97715.72;5062672;28;20121;-73
2022/04/08 07:52:54;;;;;;;3.13;1.45;;;;;;;13.08;41.52;97721.47;5060966;28;20478;-73
2022/04/08 07:55:23;;;;;;;4.13;2.03;;;;;;;13.03;41.31;97728.34;5062324;28;20057;-74
2022/04/08 07:57:51;;;;;;;3.20;1.92;;;;;;;12.80;41.66;97722.22;5064061;28;20484;-74
2022/04/08 08:00:21;;;;;;;2.42;1.75;;;;;;;12.86;42.05;97743.69;5060829;28;20050;-74
2022/04/08 08:02:49;;;;;;;5.28;2.08;;;;;;;12.74;41.63;97746.78;5061657;28;20127;-73
2022/04/08 08:05:17;;;;;;;4.35;1.60;;;;;;;13.08;41.33;97739.22;5062634;28;20052;-74
2022/04/08 08:07:46;;;;;;;2.33;1.55;;;;;;;13.73;40.83;97753.25;5061070;28;20135;-73
2022/04/08 08:10:16;;;;;;;3.53;1.42;;;;;;;14.06;39.36;97740.22;5061241;28;20241;-72
2022/04/08 08:12:43;;;;;;;11.80;1.88;;;;;;;13.73;39.55;97745.28;5062368;28;20117;-73
2022/04/08 08:15:11;;;;;;;3.67;1.25;;;;;;;13.82;40.08;97760.06;5058853;28;20064;-74
2022/04/08 08:17:40;;;;;;;6.93;1.70;;;;;;;13.82;39.74;97767.19;5061519;28;20127;-74
2022/04/08 08:20:09;;;;;;;4.50;2.20;;;;;;;13.55;40.04;97762.50;5062127;28;20047;-73
2022/04/08 08:22:36;;;;;;;5.07;2.35;;;;;;;13.34;40.08;97779.25;5059797;28;20859;-72
2022/04/08 08:25:05;;;;;;;2.35;1.60;;;;;;;13.29;40.31;97788.72;5060439;28;20067;-76
2022/04/08 08:27:38;;;;;;;5.28;1.70;;;;;;;13.28;40.69;97787.91;5061336;28;20082;-74
2022/04/08 08:30:06;;;;;;;2.05;1.50;;;;;;;13.19;40.79;97792.53;5060998;28;20401;-74
2022/04/08 08:32:33;;;;;;;3.33;1.48;;;;;;;13.20;41.05;97796.00;5061925;28;20056;-74
2022/04/08 08:35:02;;;;;;;5.25;2.22;;;;;;;13.19;41.57;97811.06;5061262;28;20074;-75
2022/04/08 08:37:29;;;;;;;3.25;1.98;;;;;;;13.00;41.91;97812.50;5058778;28;20048;-74
2022/04/08 08:39:56;;;;;;;5.60;2.35;;;;;;;12.80;42.37;97829.97;5059753;28;20459;-75
2022/04/08 08:42:24;;;;;;;1.45;1.08;;;;;;;12.63;42.57;97819.59;5062056;28;20053;-75
2022/04/08 08:44:52;;;;;;;4.90;2.58;;;;;;;12.52;42.50;97821.91;5061464;28;20048;-74
2022/04/08 08:47:19;;;;;;;4.25;2.25;;;;;;;12.51;43.03;97825.53;5060586;28;20051;-75
2022/04/08 08:49:50;;;;;;;2.90;1.60;;;;;;;12.60;42.87;97835.03;5060585;28;20062;-75
2022/04/08 08:52:20;;;;;;;4.30;1.80;;;;;;;12.41;43.83;97826.66;5062711;28;20040;-75
2022/04/08 08:54:48;;;;;;;2.97;1.95;;;;;;;12.14;44.13;97822.81;5046135;28;20078;-72
2022/04/08 08:57:16;;;;;;;2.97;1.75;;;;;;;12.14;44.59;97843.97;5064330;28;20044;-73
2022/04/08 08:59:44;;;;;;;4.80;2.10;;;;;;;12.17;44.65;97845.41;5065415;28;20094;-74
2022/04/08 09:02:12;;;;;;;3.58;1.77;;;;;;;11.94;45.55;97829.59;5066891;28;20773;-75
2022/04/08 09:04:43;;;;;;;3.92;2.38;;;;;;;11.91;45.18;97835.25;5066371;28;20054;-74
2022/04/08 09:07:26;;;;;;;5.10;1.95;;;;;;;12.15;44.80;97852.72;5065192;28;20129;-73
2022/04/08 09:09:53;;;;;;;4.18;2.35;;;;;;;12.60;44.17;97845.63;5063569;28;20051;-74
2022/04/08 09:12:23;;;;;;;5.25;1.95;;;;;;;12.87;43.05;97854.72;5064339;28;20072;-76
2022/04/08 09:14:50;;;;;;;4.53;2.05;;;;;;;12.81;43.01;97850.19;5065058;28;20068;-77
2022/04/08 09:17:18;;;;;;;5.05;2.58;;;;;;;12.70;43.56;97856.78;5063520;28;20076;-75
2022/04/08 09:19:49;;;;;;;2.63;1.40;;;;;;;12.59;43.90;97875.78;5063976;28;20060;-75
2022/04/08 09:22:16;;;;;;;4.72;2.10;;;;;;;12.32;44.42;97880.69;5063925;28;20061;-76
2022/04/08 09:24:45;;;;;;;8.02;2.85;;;;;;;12.00;46.04;97889.75;5063946;28;20127;-73
2022/04/08 09:27:12;;;;;;;3.10;1.92;;;;;;;11.46;47.87;97915.19;5063302;28;20136;-73
2022/04/08 09:29:43;;;;;;;4.90;2.58;;;;;;;10.94;51.48;97936.09;5062945;28;20081;-74
2022/04/08 09:32:11;;;;;;;5.68;3.08;;;;;;;10.60;52.57;97932.72;5062763;28;20079;-74
2022/04/08 09:34:38;;;;;;;2.72;2.53;;;;;;;10.37;52.49;97908.88;5063048;28;20041;-75
2022/04/08 09:37:11;;;;;;;1.90;1.45;;;;;;;10.28;52.42;97915.94;5064203;28;20044;-73
2022/04/08 09:39:51;;;;;;;2.60;1.58;;;;;;;10.20;52.84;97915.09;5062309;28;20059;-73
2022/04/08 09:42:19;;;;;;;2.50;1.83;;;;;;;10.06;52.86;97927.13;5063066;28;20059;-74
2022/04/08 09:44:47;;;;;;;5.47;2.53;;;;;;;9.83;53.03;97913.78;5063990;28;20078;-73
2022/04/08 09:47:14;;;;;;;6.22;3.00;;;;;;;9.62;54.05;97914.28;5064675;28;20092;-75
2022/04/08 09:49:42;;;;;;;3.00;2.22;;;;;;;9.71;54.76;97906.19;5066726;28;20091;-74
2022/04/08 09:52:11;;;;;;;4.90;4.20;;;;;;;9.94;54.40;97892.38;5065205;28;20048;-74
2022/04/08 09:54:44;;;;;;;5.78;3.05;;;;;;;10.11;54.99;97896.63;5064233;28;20076;-73
2022/04/08 09:57:18;;;;;;;4.13;2.45;;;;;;;10.36;54.09;97896.66;5063096;28;20123;-73
2022/04/08 09:59:48;;;;;;;5.15;2.38;;;;;;;10.71;54.10;97891.94;5068123;28;20083;-74
2022/04/08 10:02:17;;;;;;;9.68;3.67;;;;;;;11.02;53.25;97896.44;5068390;28;20049;-75
2022/04/08 10:04:45;;;;;;;4.55;2.97;;;;;;;11.48;53.17;97902.63;5063758;28;20574;-74
2022/04/08 10:07:12;;;;;;;3.47;2.50;;;;;;;11.95;52.17;97900.03;5062649;28;20097;-73
2022/04/08 10:09:52;;;;;;;4.65;2.38;;;;;;;12.51;50.38;97889.91;5061750;28;20070;-74
2022/04/08 10:12:29;;;;;;;3.63;2.30;;;;;;;12.91;49.32;97895.78;5064799;28;20730;-72
2022/04/08 10:15:06;;;;;;;3.22;2.50;;;;;;;12.87;48.77;97898.94;5062989;28;20066;-74
2022/04/08 10:17:33;;;;;;;2.58;1.80;;;;;;;13.10;48.61;97889.06;5062902;28;20053;-75
2022/04/08 10:20:18;;;;;;;3.75;2.58;;;;;;;13.38;47.27;97901.66;5063580;28;20140;-74
2022/04/08 10:22:48;;;;;;;3.85;1.63;;;;;;;13.41;45.54;97892.50;5064368;28;20041;-75
2022/04/08 10:25:17;;;;;;;2.65;1.85;;;;;;;13.45;43.69;97899.91;5063257;28;20052;-75
2022/04/08 10:27:45;;;;;;;5.15;2.20;;;;;;;13.39;42.57;97897.97;5062851;28;20074;-74
2022/04/08 10:30:15;;;;;;;4.07;1.75;;;;;;;13.06;42.10;97906.34;5061642;28;20084;-73
2022/04/08 10:32:43;;;;;;;1.92;1.80;;;;;;;12.96;42.10;97956.13;5062908;28;20122;-73
2022/04/08 10:35:16;;;;;;;4.20;1.00;;;;;;;12.02;44.97;97959.16;5062342;28;20150;-71
2022/04/08 10:37:43;;;;;;;6.65;1.08;;;;;;;11.11;47.51;97977.31;5062068;28;20053;-72
2022/04/08 10:40:12;;;;;;;2.50;1.88;;;;;;;10.33;50.12;97981.41;5061557;28;20443;-73
2022/04/08 10:42:39;;;;;;;1.75;0.90;;;;;;;9.86;51.80;97988.09;5061669;28;20243;-73
2022/04/08 10:45:14;;;;;;;1.67;0.95;;;;;;;9.58;52.72;98016.56;5060679;28;20123;-75
2022/04/08 10:47:47;;;;;;;;;;;;;;;9.20;54.38;98045.06;5063475;28;20055;-75
2022/04/08 10:50:25;;;;;;;1.77;0.80;;;;;;;8.56;57.67;98045.28;5060797;28;20466;-71
2022/04/08 10:53:02;;;;;;;0.70;0.35;;;;;;;8.42;58.11;98032.66;5060517;28;20051;-71
2022/04/08 10:55:30;;;;;;;0.70;0.70;;;;;;;8.24;58.89;98051.06;5061911;28;20147;-74
2022/04/08 10:57:59;;;;;;;2.15;0.98;;;;;;;8.19;59.19;98046.28;5060265;28;20049;-72
2022/04/08 11:00:27;;;;;;;4.05;1.20;;;;;;;8.16;59.05;98051.81;5061602;28;20154;-72
2022/04/08 11:02:56;;;;;;;4.25;1.77;;;;;;;8.46;58.11;98044.53;5061297;28;20090;-72
2022/04/08 11:05:23;;;;;;;5.75;1.80;;;;;;;8.91;57.42;98043.56;5060539;28;20058;-73
2022/04/08 11:07:51;;;;;;;6.50;2.03;;;;;;;9.12;57.02;98048.44;5062289;28;20055;-76
2022/04/08 11:10:20;;;;;;;2.20;1.05;;;;;;;9.35;56.59;98053.19;5060243;28;20045;-73
2022/04/08 11:12:49;;;;;;;1.60;1.50;;;;;;;9.70;56.14;98052.16;5060258;28;20044;-74
2022/04/08 11:15:19;;;;;;;2.90;1.33;;;;;;;10.36;54.95;98056.78;5061088;28;20127;-71
2022/04/08 11:17:48;;;;;;;2.90;1.90;;;;;;;10.76;53.45;98060.41;5061892;28;20075;-74
2022/04/08 11:20:16;;;;;;;2.08;1.20;;;;;;;11.13;52.41;98067.78;5041596;28;20135;-74
2022/04/08 11:22:45;;;;;;;1.08;0.93;;;;;;;11.05;51.86;98063.31;5062610;28;20128;-75
2022/04/08 11:25:21;;;;;;;2.08;1.20;;;;;;;11.08;50.88;98056.91;5061461;28;20447;-72
2022/04/08 11:27:58;;;;;;;0.77;0.77;;;;;;;11.12;49.13;98052.91;5059056;28;20059;-72
2022/04/08 11:30:25;;;;;;;2.15;1.25;;;;;;;11.44;48.41;98043.25;5061074;28;20058;-72
2022/04/08 11:32:54;;;;;;;1.27;0.88;;;;;;;11.60;47.31;98061.69;5059465;28;20132;-74
2022/04/08 11:35:21;;;;;;;0.98;0.82;;;;;;;12.18;46.93;98059.59;5059951;28;20060;-73
2022/04/08 11:37:49;;;;;;;2.30;1.38;;;;;;;12.63;44.76;98052.66;5063240;28;20140;-74
2022/04/08 11:40:18;;;;;;;3.90;1.75;;;;;;;12.85;45.38;98038.72;5058136;28;20130;-73